Time;durP1;ratioP1;P1;durP2;ratioP2;P2;SDS_P1;SDS_P2;PMS_P1;PMS_P2;Temp;Humidity;BMP_temperature;BMP_pressure;BME280_temperature;BME280_humidity;BME280_pressure;Samples;Min_cycle;Max_cycle;Signal;HPM_P1;HPM_P2
2023/07/16 00:00:09;;;;;;;1999.90;999.90;;;19.30;99.90;;;;;;4992114;28;20281;-68
2023/07/16 00:02:35;;;;;;;1999.90;999.90;;;19.20;99.90;;;;;;4991709;28;20205;-67
2023/07/16 00:05:01;;;;;;;1999.90;999.90;;;19.30;99.90;;;;;;4992145;28;20401;-67
2023/07/16 00:07:27;;;;;;;1999.90;999.90;;;19.30;99.90;;;;;;4992338;28;20507;-69
2023/07/16 00:09:52;;;;;;;1999.90;999.90;;;19.30;99.90;;;;;;4992282;28;20220;-68
2023/07/16 00:12:18;;;;;;;1999.90;999.90;;;19.20;99.90;;;;;;4992558;28;20659;-70
2023/07/16 00:14:43;;;;;;;1999.90;999.90;;;19.20;99.90;;;;;;4995883;28;20586;-69
2023/07/16 00:17:09;;;;;;;1999.90;999.90;;;19.20;99.90;;;;;;4995914;28;20178;-69
2023/07/16 00:19:34;;;;;;;1999.90;999.90;;;19.20;99.90;;;;;;4995839;28;20181;-69
2023/07/16 00:22:00;;;;;;;1999.90;999.90;;;19.20;99.90;;;;;;4995542;28;20689;-69
2023/07/16 00:24:26;;;;;;;1999.90;999.90;;;19.20;99.90;;;;;;4995866;28;20261;-69
2023/07/16 00:26:53;;;;;;;1999.90;999.90;;;19.20;99.90;;;;;;4995492;28;20233;-67
2023/07/16 00:29:18;;;;;;;1999.90;999.90;;;19.20;99.90;;;;;;4995421;28;20962;-67
2023/07/16 00:31:44;;;;;;;1999.90;999.90;;;19.20;99.90;;;;;;4994958;28;20431;-67
2023/07/16 00:34:10;;;;;;;1999.90;999.90;;;19.20;99.90;;;;;;4995512;28;20601;-68
2023/07/16 00:36:35;;;;;;;1999.90;999.90;;;19.20;99.90;;;;;;4995424;28;20933;-67
2023/07/16 00:39:01;;;;;;;1999.90;999.90;;;19.10;99.90;;;;;;4995180;28;20642;-67
2023/07/16 00:41:27;;;;;;;1999.90;999.90;;;19.20;99.90;;;;;;4994876;28;20202;-67
2023/07/16 00:43:54;;;;;;;1999.90;999.90;;;19.20;99.90;;;;;;4995167;28;20754;-68
2023/07/16 00:46:19;;;;;;;1999.90;999.90;;;19.10;99.90;;;;;;4994839;28;20201;-68
2023/07/16 00:48:45;;;;;;;1999.90;999.90;;;19.10;99.90;;;;;;4995029;28;20475;-69
2023/07/16 00:51:12;;;;;;;1999.90;999.90;;;19.10;99.90;;;;;;4994668;28;20194;-68
2023/07/16 00:53:40;;;;;;;1999.90;999.90;;;19.00;99.90;;;;;;4994902;28;20177;-67
2023/07/16 00:56:07;;;;;;;1999.90;999.90;;;19.00;99.90;;;;;;4994938;28;20453;-68
2023/07/16 00:58:33;;;;;;;1999.90;999.90;;;19.00;99.90;;;;;;4994844;28;20915;-68
2023/07/16 01:00:58;;;;;;;1999.90;999.90;;;19.10;99.90;;;;;;4994386;28;20442;-68
2023/07/16 01:03:24;;;;;;;1999.90;999.90;;;19.10;99.90;;;;;;4994923;28;20187;-67
2023/07/16 01:06:22;;;;;;;1999.90;999.90;;;19.10;99.90;;;;;;4994649;28;20295;-68
2023/07/16 01:09:03;;;;;;;1999.90;999.90;;;19.00;99.90;;;;;;4994657;28;20272;-68
2023/07/16 01:11:30;;;;;;;1999.90;999.90;;;19.00;99.90;;;;;;4994270;28;20427;-68
2023/07/16 01:13:57;;;;;;;1999.90;999.90;;;19.10;99.90;;;;;;4994513;28;20417;-68
2023/07/16 01:16:24;;;;;;;1999.90;999.90;;;19.10;99.90;;;;;;4994534;28;20404;-68
2023/07/16 01:18:50;;;;;;;1999.90;999.90;;;19.00;99.90;;;;;;4994627;28;20882;-68
2023/07/16 01:21:18;;;;;;;1999.90;999.90;;;19.00;99.90;;;;;;4994068;28;20528;-68
2023/07/16 01:24:10;;;;;;;1999.90;999.90;;;19.00;99.90;;;;;;4993492;28;20507;-69
2023/07/16 01:26:57;;;;;;;1999.90;999.90;;;18.90;99.90;;;;;;4994350;28;20562;-68
2023/07/16 01:29:43;;;;;;;1999.90;999.90;;;18.90;99.90;;;;;;4994328;28;20935;-68
2023/07/16 01:32:11;;;;;;;1999.90;999.90;;;18.90;99.90;;;;;;4993903;28;20434;-68
2023/07/16 01:34:38;;;;;;;1999.90;999.90;;;18.90;99.90;;;;;;4994107;28;20466;-68
2023/07/16 01:37:04;;;;;;;1999.90;999.90;;;18.90;99.90;;;;;;4994292;28;20420;-68
2023/07/16 01:39:32;;;;;;;1999.90;999.90;;;18.90;99.90;;;;;;4994121;28;20516;-67
2023/07/16 01:41:58;;;;;;;1999.90;999.90;;;18.90;99.90;;;;;;4993641;28;20474;-68
2023/07/16 01:44:23;;;;;;;1999.90;999.90;;;18.80;99.90;;;;;;4993927;28;20447;-67
2023/07/16 01:47:10;;;;;;;1999.90;999.90;;;18.80;99.90;;;;;;4993839;28;20597;-68
2023/07/16 01:49:36;;;;;;;1999.90;999.90;;;18.90;99.90;;;;;;4993925;28;20173;-68
2023/07/16 01:52:02;;;;;;;1999.90;999.90;;;18.80;99.90;;;;;;4993507;28;20436;-68
2023/07/16 01:54:28;;;;;;;1999.90;999.90;;;18.80;99.90;;;;;;4993760;28;20269;-68
2023/07/16 01:56:54;;;;;;;1999.90;999.90;;;18.80;99.90;;;;;;4993751;28;20503;-68
2023/07/16 01:59:19;;;;;;;1999.90;999.90;;;18.90;99.90;;;;;;4993582;28;20288;-68
2023/07/16 02:01:45;;;;;;;1999.90;999.90;;;18.80;99.90;;;;;;4981434;28;20213;-69
2023/07/16 02:04:10;;;;;;;1999.90;999.90;;;18.80;99.90;;;;;;4974177;28;20587;-68
2023/07/16 02:06:36;;;;;;;1999.90;999.90;;;18.80;99.90;;;;;;4974129;28;20206;-68
2023/07/16 02:09:02;;;;;;;1999.90;999.90;;;18.80;99.90;;;;;;4974069;28;20174;-68
2023/07/16 02:11:28;;;;;;;1999.90;999.90;;;18.80;99.90;;;;;;4973726;28;20183;-69
2023/07/16 02:13:54;;;;;;;1999.90;999.90;;;18.70;99.90;;;;;;4974046;28;20220;-68
2023/07/16 02:16:19;;;;;;;1999.90;999.90;;;18.70;99.90;;;;;;4973962;28;20914;-69
2023/07/16 02:18:45;;;;;;;1999.90;999.90;;;18.80;99.90;;;;;;4974115;28;20564;-69
2023/07/16 02:21:10;;;;;;;1999.90;999.90;;;18.70;99.90;;;;;;4973658;28;20201;-69
2023/07/16 02:23:36;;;;;;;1999.90;999.90;;;18.70;99.90;;;;;;4973915;28;20648;-69
2023/07/16 02:26:02;;;;;;;1999.90;999.90;;;18.70;99.90;;;;;;4973825;28;20602;-68
2023/07/16 02:28:28;;;;;;;1999.90;999.90;;;18.70;99.90;;;;;;4973797;28;20892;-69
2023/07/16 02:30:53;;;;;;;1999.90;999.90;;;18.70;99.90;;;;;;4973450;28;20241;-69
2023/07/16 02:33:19;;;;;;;1999.90;999.90;;;18.70;99.90;;;;;;4973725;28;20179;-68
2023/07/16 02:35:49;;;;;;;1999.90;999.90;;;18.70;99.90;;;;;;4973378;28;20209;-68
2023/07/16 02:38:15;;;;;;;1999.90;999.90;;;18.70;99.90;;;;;;4973628;28;20217;-68
2023/07/16 02:40:48;;;;;;;1999.90;999.90;;;18.60;99.90;;;;;;4973478;28;20444;-68
2023/07/16 02:43:14;;;;;;;1999.90;999.90;;;18.60;99.90;;;;;;4973396;28;20415;-68
2023/07/16 02:45:41;;;;;;;1999.90;999.90;;;18.60;99.90;;;;;;4973616;28;20461;-68
2023/07/16 02:48:07;;;;;;;1999.90;999.90;;;18.50;99.90;;;;;;4973502;28;20470;-68
2023/07/16 02:50:38;;;;;;;1999.90;999.90;;;18.50;99.90;;;;;;4973388;28;20437;-69
2023/07/16 02:53:05;;;;;;;1999.90;999.90;;;18.50;99.90;;;;;;4973176;28;20775;-68
2023/07/16 02:55:31;;;;;;;1999.90;999.90;;;18.50;99.90;;;;;;4973718;28;20413;-69
2023/07/16 02:57:57;;;;;;;1999.90;999.90;;;18.50;99.90;;;;;;4973779;28;20420;-69
2023/07/16 03:00:23;;;;;;;1999.90;999.90;;;18.40;99.90;;;;;;4973611;28;20844;-69
2023/07/16 03:02:51;;;;;;;1999.90;999.90;;;18.40;99.90;;;;;;4973544;28;20487;-70
2023/07/16 03:05:17;;;;;;;1999.90;999.90;;;18.40;99.90;;;;;;4973795;28;20734;-69
2023/07/16 03:07:43;;;;;;;1999.90;999.90;;;18.40;99.90;;;;;;4973533;28;20541;-70
2023/07/16 03:10:09;;;;;;;1999.90;999.90;;;18.30;99.90;;;;;;4974168;28;20658;-68
2023/07/16 03:12:34;;;;;;;1999.90;999.90;;;18.30;99.90;;;;;;4972887;28;20488;-68
2023/07/16 03:15:00;;;;;;;1999.90;999.90;;;18.20;99.90;;;;;;4973260;28;20456;-68
2023/07/16 03:17:25;;;;;;;1999.90;999.90;;;18.20;99.90;;;;;;4973175;28;20651;-68
2023/07/16 03:19:51;;;;;;;1999.90;999.90;;;18.20;99.90;;;;;;4973148;28;20182;-68
2023/07/16 03:22:17;;;;;;;1999.90;999.90;;;18.20;99.90;;;;;;4972785;28;20210;-68
2023/07/16 03:24:42;;;;;;;1999.90;999.90;;;18.20;99.90;;;;;;4973088;28;20224;-68
2023/07/16 03:27:08;;;;;;;1999.90;999.90;;;18.10;99.90;;;;;;4972948;28;20262;-68
2023/07/16 03:29:33;;;;;;;1999.90;999.90;;;18.10;99.90;;;;;;4973169;28;20186;-69
2023/07/16 03:31:59;;;;;;;1999.90;999.90;;;18.10;99.90;;;;;;4972697;28;20189;-68
2023/07/16 03:34:25;;;;;;;1999.90;999.90;;;18.10;99.90;;;;;;4973165;28;20193;-69
2023/07/16 03:36:51;;;;;;;1999.90;999.90;;;18.10;99.90;;;;;;4988297;28;20429;-68
2023/07/16 03:39:17;;;;;;;1999.90;999.90;;;18.10;99.90;;;;;;4992126;28;20186;-69
2023/07/16 03:41:42;;;;;;;1999.90;999.90;;;18.00;99.90;;;;;;4989039;28;20196;-68
2023/07/16 03:44:08;;;;;;;1999.90;999.90;;;18.00;99.90;;;;;;4987160;28;20182;-68
2023/07/16 03:46:33;;;;;;;1999.90;999.90;;;18.10;99.90;;;;;;4992260;28;20249;-68
2023/07/16 03:48:59;;;;;;;1999.90;999.90;;;18.00;99.90;;;;;;4995546;28;20664;-68
2023/07/16 03:51:25;;;;;;;1999.90;999.90;;;17.90;99.90;;;;;;4995709;28;20201;-68
2023/07/16 03:53:50;;;;;;;1999.90;999.90;;;17.90;99.90;;;;;;4996093;28;20201;-68
2023/07/16 03:56:16;;;;;;;1999.90;999.90;;;17.90;99.90;;;;;;4997302;28;20192;-68
2023/07/16 03:58:41;;;;;;;1999.90;999.90;;;17.90;99.90;;;;;;4996825;28;20572;-68
2023/07/16 04:01:07;;;;;;;1999.90;999.90;;;17.90;99.90;;;;;;4995790;28;20240;-69
2023/07/16 04:03:32;;;;;;;1999.90;999.90;;;17.90;99.90;;;;;;4996234;28;20177;-69
2023/07/16 04:06:09;;;;;;;1999.90;999.90;;;18.00;99.90;;;;;;4996009;28;20195;-69
2023/07/16 04:08:35;;;;;;;1999.90;999.90;;;17.90;99.90;;;;;;4996411;28;20166;-69
2023/07/16 04:11:01;;;;;;;1999.90;999.90;;;17.90;99.90;;;;;;4995843;28;20431;-69
2023/07/16 04:13:27;;;;;;;1999.90;999.90;;;17.90;99.90;;;;;;4996737;28;20228;-67
2023/07/16 04:15:57;;;;;;;1999.90;999.90;;;17.90;99.90;;;;;;4996450;28;20413;-67
2023/07/16 04:18:23;;;;;;;1999.90;999.90;;;18.00;99.90;;;;;;4996815;28;20170;-67
2023/07/16 04:20:48;;;;;;;1999.90;999.90;;;18.00;99.90;;;;;;4996845;28;20850;-67
2023/07/16 04:23:14;;;;;;;1999.90;999.90;;;18.00;99.90;;;;;;4996416;28;20191;-68
2023/07/16 04:25:39;;;;;;;1999.90;999.90;;;18.10;99.90;;;;;;4996247;28;20174;-68
2023/07/16 04:28:05;;;;;;;1999.90;999.90;;;18.10;99.90;;;;;;4995998;28;20195;-69
2023/07/16 04:30:30;;;;;;;1999.90;999.90;;;18.10;99.90;;;;;;4996683;28;20690;-69
2023/07/16 04:32:56;;;;;;;1999.90;999.90;;;18.10;99.90;;;;;;4995977;28;20174;-68
2023/07/16 04:35:22;;;;;;;1999.90;999.90;;;18.10;99.90;;;;;;4996052;28;20176;-68
2023/07/16 04:37:47;;;;;;;1999.90;999.90;;;18.10;99.90;;;;;;4995897;28;20182;-69
2023/07/16 04:40:13;;;;;;;1999.90;999.90;;;18.20;99.90;;;;;;4995209;28;20264;-69
2023/07/16 04:42:38;;;;;;;1999.90;999.90;;;18.10;99.90;;;;;;4994830;28;20207;-69
2023/07/16 04:45:05;;;;;;;1999.90;999.90;;;18.10;99.90;;;;;;4995181;28;20262;-69
2023/07/16 04:47:31;;;;;;;1999.90;999.90;;;18.20;99.90;;;;;;4994986;28;20202;-69
2023/07/16 04:49:58;;;;;;;1999.90;999.90;;;18.20;99.90;;;;;;4995002;28;20412;-69
2023/07/16 04:52:24;;;;;;;1999.90;999.90;;;18.10;99.90;;;;;;4994907;28;20934;-69
2023/07/16 04:54:50;;;;;;;1999.90;999.90;;;18.20;99.90;;;;;;4994937;28;20422;-69
2023/07/16 04:57:15;;;;;;;1999.90;999.90;;;18.20;99.90;;;;;;4995369;28;20180;-68
2023/07/16 04:59:41;;;;;;;1999.90;999.90;;;18.20;99.90;;;;;;4995413;28;20234;-68
2023/07/16 05:02:06;;;;;;;1999.90;999.90;;;18.20;99.90;;;;;;4995196;28;20198;-69
2023/07/16 05:04:33;;;;;;;1999.90;999.90;;;18.20;99.90;;;;;;4995138;28;20177;-69
2023/07/16 05:07:00;;;;;;;1999.90;999.90;;;18.20;99.90;;;;;;4995452;28;20744;-68
2023/07/16 05:09:26;;;;;;;1999.90;999.90;;;18.30;99.90;;;;;;4994860;28;20399;-69
2023/07/16 05:11:51;;;;;;;1999.90;999.90;;;18.30;99.90;;;;;;4994504;28;21031;-68
2023/07/16 05:14:17;;;;;;;1999.90;999.90;;;18.30;99.90;;;;;;4995101;28;20180;-68
2023/07/16 05:16:42;;;;;;;1999.90;999.90;;;18.30;99.90;;;;;;4995088;28;20169;-68
2023/07/16 05:19:08;;;;;;;1999.90;999.90;;;18.40;99.90;;;;;;4994920;28;20548;-68
2023/07/16 05:21:34;;;;;;;1999.90;999.90;;;18.40;99.90;;;;;;4994564;28;20253;-68
2023/07/16 05:23:59;;;;;;;1999.90;999.90;;;18.30;99.90;;;;;;4995041;28;20168;-68
2023/07/16 05:26:25;;;;;;;1999.90;999.90;;;18.40;99.90;;;;;;4994892;28;20205;-68
2023/07/16 05:28:50;;;;;;;1999.90;999.90;;;18.40;99.90;;;;;;4994998;28;20179;-69
2023/07/16 05:31:16;;;;;;;1999.90;999.90;;;18.50;99.90;;;;;;4994417;28;20197;-69
2023/07/16 05:33:41;;;;;;;1999.90;999.90;;;18.50;99.90;;;;;;4994383;28;20181;-70
2023/07/16 05:36:07;;;;;;;1999.90;999.90;;;18.50;99.90;;;;;;4994183;28;20175;-68
2023/07/16 05:38:32;;;;;;;1999.90;999.90;;;18.50;99.90;;;;;;4994096;28;20186;-68
2023/07/16 05:41:03;;;;;;;1999.90;999.90;;;18.60;99.90;;;;;;4993798;28;20273;-68
2023/07/16 05:43:28;;;;;;;1999.90;999.90;;;18.60;99.90;;;;;;4994039;28;20176;-68
2023/07/16 05:45:54;;;;;;;1999.90;999.90;;;18.60;99.90;;;;;;4993914;28;20459;-68
2023/07/16 05:48:20;;;;;;;1999.90;999.90;;;18.60;99.90;;;;;;4993932;28;20418;-68
2023/07/16 05:50:45;;;;;;;1999.90;999.90;;;18.60;99.90;;;;;;4993761;28;20187;-68
2023/07/16 05:53:13;;;;;;;1999.90;999.90;;;18.70;99.90;;;;;;4993611;28;20165;-68
2023/07/16 05:55:39;;;;;;;1999.90;999.90;;;18.70;99.90;;;;;;4993979;28;20171;-68
2023/07/16 05:58:05;;;;;;;1999.90;999.90;;;18.70;99.90;;;;;;4993619;28;20407;-67
2023/07/16 06:00:31;;;;;;;1999.90;999.90;;;18.70;99.90;;;;;;4993696;28;20423;-68
2023/07/16 06:02:56;;;;;;;1999.90;999.90;;;18.70;99.90;;;;;;4994356;28;20634;-67
2023/07/16 06:05:22;;;;;;;1999.90;999.90;;;18.70;99.90;;;;;;4994909;28;20170;-68
2023/07/16 06:07:48;;;;;;;1999.90;999.90;;;18.70;99.90;;;;;;4994369;28;20215;-68
2023/07/16 06:10:13;;;;;;;1999.90;999.90;;;18.60;99.90;;;;;;4993745;28;20413;-69
2023/07/16 06:12:39;;;;;;;1999.90;999.90;;;18.60;99.90;;;;;;4993396;28;20201;-69
2023/07/16 06:15:05;;;;;;;1999.90;999.90;;;18.60;99.90;;;;;;4993457;28;20177;-69
2023/07/16 06:17:30;;;;;;;1999.90;999.90;;;18.60;99.90;;;;;;4993301;28;20183;-69
2023/07/16 06:19:57;;;;;;;1999.90;999.90;;;18.70;99.90;;;;;;4993358;28;20178;-69
2023/07/16 06:22:23;;;;;;;1999.90;999.90;;;18.70;99.90;;;;;;4993197;28;20207;-69
2023/07/16 06:24:48;;;;;;;1999.90;999.90;;;18.60;99.90;;;;;;4993375;28;20424;-70
2023/07/16 06:27:14;;;;;;;1999.90;999.90;;;18.60;99.90;;;;;;4993192;28;20199;-68
2023/07/16 06:29:39;;;;;;;1999.90;999.90;;;18.70;99.90;;;;;;4993221;28;20538;-67
2023/07/16 06:32:06;;;;;;;1999.90;999.90;;;18.70;99.90;;;;;;4992704;28;20198;-67
2023/07/16 06:34:31;;;;;;;1999.90;999.90;;;18.70;99.90;;;;;;4993044;28;20183;-67
2023/07/16 06:36:57;;;;;;;1999.90;999.90;;;18.70;99.90;;;;;;4993126;28;20463;-68
2023/07/16 06:39:22;;;;;;;1999.90;999.90;;;18.80;99.90;;;;;;4993018;28;20544;-68
2023/07/16 06:41:48;;;;;;;1999.90;999.90;;;18.80;99.90;;;;;;4992605;28;20203;-67
2023/07/16 06:44:13;;;;;;;1999.90;999.90;;;18.80;99.90;;;;;;4993016;28;20644;-70
2023/07/16 06:46:39;;;;;;;1999.90;999.90;;;18.90;99.90;;;;;;4992822;28;20202;-68
2023/07/16 06:49:06;;;;;;;1999.90;999.90;;;18.90;99.90;;;;;;4992939;28;20162;-68
2023/07/16 06:51:32;;;;;;;1999.90;999.90;;;18.90;99.90;;;;;;4988066;28;20601;-68
2023/07/16 06:53:59;;;;;;;1999.90;999.90;;;19.00;99.90;;;;;;4992706;28;20784;-68
2023/07/16 06:56:25;;;;;;;1999.90;999.90;;;19.00;99.90;;;;;;4991543;28;20440;-68
2023/07/16 06:58:50;;;;;;;1999.90;999.90;;;19.10;99.90;;;;;;4985176;28;20432;-67
2023/07/16 07:01:16;;;;;;;1999.90;999.90;;;19.10;99.90;;;;;;4992329;28;20258;-70
2023/07/16 07:03:41;;;;;;;1999.90;999.90;;;19.00;99.90;;;;;;4992947;28;20180;-67
2023/07/16 07:06:10;;;;;;;1999.90;999.90;;;19.00;99.90;;;;;;4991944;28;20219;-68
2023/07/16 07:08:36;;;;;;;1999.90;999.90;;;19.10;99.90;;;;;;4991878;28;20190;-68
2023/07/16 07:11:02;;;;;;;1999.90;999.90;;;19.10;99.90;;;;;;4984508;28;20436;-69
2023/07/16 07:13:29;;;;;;;1999.90;999.90;;;19.10;99.90;;;;;;4984578;28;20429;-68
2023/07/16 07:15:55;;;;;;;1999.90;999.90;;;19.20;99.90;;;;;;4992523;28;20527;-68
2023/07/16 07:18:21;;;;;;;1999.90;999.90;;;19.20;99.90;;;;;;4992543;28;20417;-68
2023/07/16 07:20:47;;;;;;;1999.90;999.90;;;19.30;99.90;;;;;;4992417;28;20438;-68
2023/07/16 07:23:13;;;;;;;1999.90;999.90;;;19.30;99.90;;;;;;4986393;28;20679;-67
2023/07/16 07:25:39;;;;;;;1999.90;999.90;;;19.40;99.90;;;;;;4996484;28;20409;-70
2023/07/16 07:28:05;;;;;;;1999.90;999.90;;;19.40;99.90;;;;;;4996525;28;20418;-70
2023/07/16 07:30:30;;;;;;;1999.90;999.90;;;19.40;99.90;;;;;;4996182;28;20259;-70
2023/07/16 07:32:56;;;;;;;1999.90;999.90;;;19.50;99.90;;;;;;4996205;28;20247;-70
2023/07/16 07:35:21;;;;;;;1999.90;999.90;;;19.50;99.90;;;;;;4996370;28;20169;-68
2023/07/16 07:37:47;;;;;;;1999.90;999.90;;;19.50;99.90;;;;;;4996459;28;20190;-67
2023/07/16 07:40:13;;;;;;;1999.90;999.90;;;19.60;99.90;;;;;;4996307;28;20175;-68
2023/07/16 07:42:38;;;;;;;1999.90;999.90;;;19.60;99.90;;;;;;4996016;28;20211;-69
2023/07/16 07:45:05;;;;;;;1999.90;999.90;;;19.70;99.90;;;;;;4996131;28;20177;-68
2023/07/16 07:47:31;;;;;;;1999.90;999.90;;;19.70;99.90;;;;;;4996080;28;20206;-68
2023/07/16 07:49:57;;;;;;;1999.90;999.90;;;19.60;99.90;;;;;;4996305;28;20435;-67
2023/07/16 07:52:23;;;;;;;1999.90;999.90;;;19.70;99.90;;;;;;4995809;28;20483;-68
2023/07/16 07:54:48;;;;;;;1999.90;999.90;;;19.70;99.90;;;;;;4996149;28;20171;-68
2023/07/16 07:57:14;;;;;;;1999.90;999.90;;;19.80;99.90;;;;;;4996102;28;20182;-69
2023/07/16 07:59:40;;;;;;;1999.90;999.90;;;19.90;99.90;;;;;;4995630;28;20225;-68
2023/07/16 08:02:06;;;;;;;1999.90;999.90;;;20.00;99.90;;;;;;4995644;28;20463;-68
2023/07/16 08:04:32;;;;;;;1999.90;999.90;;;20.10;99.90;;;;;;4995851;28;20526;-68
2023/07/16 08:06:58;;;;;;;1999.90;999.90;;;20.20;99.90;;;;;;4995903;28;20215;-68
2023/07/16 08:09:25;;;;;;;1999.90;999.90;;;20.30;99.90;;;;;;4995823;28;20459;-68
2023/07/16 08:11:51;;;;;;;1999.90;999.90;;;20.30;99.90;;;;;;4995453;28;20426;-70
2023/07/16 08:14:16;;;;;;;1999.90;999.90;;;20.30;99.90;;;;;;4995648;28;20466;-70
2023/07/16 08:16:42;;;;;;;1999.90;999.90;;;20.30;99.90;;;;;;4995684;28;20645;-68
2023/07/16 08:19:08;;;;;;;1999.90;999.90;;;20.30;99.90;;;;;;4995797;28;20192;-70
2023/07/16 08:21:34;;;;;;;1999.90;999.90;;;20.40;99.90;;;;;;4995115;28;20195;-68
2023/07/16 08:23:59;;;;;;;1999.90;999.90;;;20.40;99.90;;;;;;4995486;28;20407;-70
2023/07/16 08:26:25;;;;;;;1999.90;999.90;;;20.40;99.90;;;;;;4995826;28;20198;-68
2023/07/16 08:28:50;;;;;;;1999.90;999.90;;;20.50;99.90;;;;;;4995663;28;20163;-68
2023/07/16 08:31:16;;;;;;;1999.90;999.90;;;20.60;99.90;;;;;;4995450;28;20546;-68
2023/07/16 08:33:41;;;;;;;1999.90;999.90;;;20.70;99.90;;;;;;4995321;28;20166;-67
2023/07/16 08:36:09;;;;;;;1999.90;999.90;;;20.60;99.90;;;;;;4995853;28;20176;-68
2023/07/16 08:38:35;;;;;;;1999.90;999.90;;;20.70;99.90;;;;;;4995802;28;20176;-68
2023/07/16 08:41:00;;;;;;;1999.90;999.90;;;20.60;99.90;;;;;;4995109;28;20433;-68
2023/07/16 08:43:28;;;;;;;1999.90;999.90;;;20.80;99.90;;;;;;4995429;28;20579;-68
2023/07/16 08:45:53;;;;;;;1999.90;999.90;;;20.80;99.90;;;;;;4995180;28;20189;-69
2023/07/16 08:48:19;;;;;;;1999.90;999.90;;;20.90;99.90;;;;;;4995091;28;20389;-70
2023/07/16 08:50:48;;;;;;;1999.90;999.90;;;21.00;99.90;;;;;;4994935;28;20558;-69
2023/07/16 08:53:19;;;;;;;1999.90;999.90;;;21.10;99.90;;;;;;4994806;28;20458;-68
2023/07/16 08:55:45;;;;;;;1999.90;999.90;;;21.10;99.90;;;;;;4994878;28;20544;-69
2023/07/16 08:58:14;;;;;;;1999.90;999.90;;;21.20;99.90;;;;;;4994942;28;20833;-69
2023/07/16 09:00:44;;;;;;;1999.90;999.90;;;21.40;99.90;;;;;;4994735;28;20936;-69
2023/07/16 09:03:13;;;;;;;1999.90;999.90;;;21.50;99.90;;;;;;4994646;28;20549;-68
2023/07/16 09:05:40;;;;;;;1999.90;999.90;;;21.60;99.90;;;;;;4994707;28;20439;-69
2023/07/16 09:08:06;;;;;;;1999.90;999.90;;;21.60;99.20;;;;;;4994758;28;20510;-69
2023/07/16 09:10:32;;;;;;;1999.90;999.90;;;21.70;98.90;;;;;;4995009;28;20405;-68
2023/07/16 09:12:59;;;;;;;1999.90;999.90;;;21.70;97.40;;;;;;4994426;28;20397;-68
2023/07/16 09:15:26;;;;;;;1999.90;999.90;;;21.50;95.80;;;;;;4994701;28;20703;-68
2023/07/16 09:17:54;;;;;;;1999.90;999.90;;;21.40;97.70;;;;;;4995007;28;20405;-68
2023/07/16 09:20:21;;;;;;;1999.90;999.90;;;21.30;96.20;;;;;;4994596;28;20490;-69
2023/07/16 09:22:47;;;;;;;1999.90;999.90;;;21.40;97.00;;;;;;4994222;28;20499;-69
2023/07/16 09:25:13;;;;;;;1999.90;999.90;;;21.50;98.20;;;;;;4994339;28;20437;-69
2023/07/16 09:27:38;;;;;;;1999.90;999.90;;;21.50;96.40;;;;;;4994366;28;20508;-70
2023/07/16 09:30:05;;;;;;;1999.90;999.90;;;21.60;96.20;;;;;;4994497;28;20254;-69
2023/07/16 09:32:41;;;;;;;1999.90;999.90;;;21.50;95.90;;;;;;4993986;28;20192;-68
2023/07/16 09:35:13;;;;;;;1999.90;999.90;;;21.50;95.40;;;;;;4994265;28;20602;-69
2023/07/16 09:37:39;;;;;;;1999.90;999.90;;;21.50;96.00;;;;;;4994174;28;20932;-70
2023/07/16 09:40:08;;;;;;;1999.90;999.90;;;21.40;94.10;;;;;;4994189;28;20412;-69
2023/07/16 09:42:38;;;;;;;1999.90;999.90;;;21.40;95.20;;;;;;4993816;28;20431;-69
2023/07/16 09:45:07;;;;;;;1999.90;999.90;;;21.50;94.40;;;;;;4993188;28;20412;-69
2023/07/16 09:47:32;;;;;;;1999.90;999.90;;;21.40;94.70;;;;;;4993891;28;20452;-69
2023/07/16 09:49:58;;;;;;;1999.90;999.90;;;21.40;94.80;;;;;;4993811;28;20408;-69
2023/07/16 09:52:26;;;;;;;1999.90;999.90;;;21.70;94.60;;;;;;4993542;28;20195;-69
2023/07/16 09:54:55;;;;;;;1999.90;999.90;;;22.00;94.70;;;;;;4993843;28;20180;-69
2023/07/16 09:57:25;;;;;;;1999.90;999.90;;;22.10;91.70;;;;;;4993771;28;20378;-69
2023/07/16 09:59:53;;;;;;;1999.90;999.90;;;22.20;92.40;;;;;;4993693;28;20478;-69
2023/07/16 10:02:20;;;;;;;1999.90;999.90;;;22.40;90.40;;;;;;4993271;28;20803;-69
2023/07/16 10:04:46;;;;;;;1999.90;999.90;;;22.40;90.70;;;;;;4993646;28;20482;-69
2023/07/16 10:07:26;;;;;;;1999.90;999.90;;;22.60;89.80;;;;;;4993543;28;20462;-68
2023/07/16 10:09:56;;;;;;;1999.90;999.90;;;22.40;82.40;;;;;;4993532;28;20179;-69
2023/07/16 10:12:24;;;;;;;1999.90;999.90;;;22.30;78.70;;;;;;4993190;28;20423;-68
2023/07/16 10:14:52;;;;;;;1999.90;999.90;;;22.40;85.90;;;;;;4993381;28;20407;-69
2023/07/16 10:17:25;;;;;;;1999.90;999.90;;;22.40;82.50;;;;;;4993335;28;20902;-69
2023/07/16 10:20:04;;;;;;;1999.90;999.90;;;22.60;85.80;;;;;;4993290;28;20440;-68
2023/07/16 10:22:46;;;;;;;1999.90;999.90;;;23.00;83.60;;;;;;4992991;28;20928;-68
2023/07/16 10:25:17;;;;;;;1999.90;999.90;;;23.40;74.10;;;;;;4993328;28;20387;-68
2023/07/16 10:27:44;;;;;;;1999.90;999.90;;;23.60;78.20;;;;;;4993068;28;20463;-69
2023/07/16 10:30:10;;;;;;;1999.90;999.90;;;23.40;65.60;;;;;;4993207;28;20460;-69
2023/07/16 10:32:36;;;;;;;1999.90;999.90;;;23.30;66.80;;;;;;4992950;28;20460;-68
2023/07/16 10:35:05;;;;;;;1999.90;999.90;;;23.40;60.80;;;;;;4993198;28;20169;-69
2023/07/16 10:37:30;;;;;;;1999.90;999.90;;;23.60;65.30;;;;;;4993012;28;20228;-69
2023/07/16 10:39:59;;;;;;;1999.90;999.90;;;23.90;60.60;;;;;;4993019;28;20416;-69
2023/07/16 10:42:26;;;;;;;1999.90;999.90;;;23.80;57.60;;;;;;4992628;28;20252;-70
2023/07/16 10:45:03;;;;;;;1999.90;999.90;;;23.70;55.90;;;;;;4993054;28;20408;-69
2023/07/16 10:47:36;;;;;;;1999.90;999.90;;;23.80;57.50;;;;;;4992868;28;20859;-70
2023/07/16 10:50:08;;;;;;;1999.90;999.90;;;23.90;52.20;;;;;;4992949;28;20783;-69
2023/07/16 10:52:34;;;;;;;1999.90;999.90;;;24.00;50.40;;;;;;4992443;28;20418;-68
2023/07/16 10:55:00;;;;;;;1999.90;999.90;;;23.80;50.50;;;;;;4992989;28;20419;-68
2023/07/16 10:57:27;;;;;;;1999.90;999.90;;;23.70;52.20;;;;;;4992827;28;20411;-68
2023/07/16 10:59:54;;;;;;;1999.90;999.90;;;23.70;53.00;;;;;;4992737;28;20248;-69
2023/07/16 11:02:22;;;;;;;1999.90;999.90;;;23.60;52.60;;;;;;4992617;28;20409;-69
2023/07/16 11:04:48;;;;;;;1999.90;999.90;;;23.50;50.60;;;;;;4993191;28;20408;-68
2023/07/16 11:07:15;;;;;;;1999.90;999.90;;;23.40;53.20;;;;;;4992598;28;20452;-68
2023/07/16 11:09:45;;;;;;;1999.90;999.90;;;23.60;53.90;;;;;;4992656;28;20391;-68
2023/07/16 11:12:14;;;;;;;1999.90;999.90;;;23.80;49.60;;;;;;4992432;28;20500;-69
2023/07/16 11:14:47;;;;;;;1999.90;999.90;;;24.10;51.50;;;;;;4992906;28;20993;-68
2023/07/16 11:17:14;;;;;;;1999.90;999.90;;;24.50;52.20;;;;;;4992765;28;20436;-69
2023/07/16 11:19:42;;;;;;;1999.90;999.90;;;24.50;43.70;;;;;;4992664;28;20511;-68
2023/07/16 11:22:09;;;;;;;1999.90;999.90;;;24.40;42.60;;;;;;4992473;28;20927;-68
2023/07/16 11:24:49;;;;;;;1999.90;999.90;;;24.40;44.30;;;;;;4992989;28;20383;-69
2023/07/16 11:27:16;;;;;;;1999.90;999.90;;;24.30;45.40;;;;;;4994339;28;20509;-70
2023/07/16 11:30:00;;;;;;;1999.90;999.90;;;24.10;44.90;;;;;;4995542;28;20383;-70
2023/07/16 11:32:43;;;;;;;1999.90;999.90;;;24.30;44.20;;;;;;4994891;28;20428;-70
2023/07/16 11:35:15;;;;;;;1999.90;999.90;;;24.40;40.80;;;;;;4996727;28;20483;-70
2023/07/16 11:37:41;;;;;;;1999.90;999.90;;;24.50;40.70;;;;;;4995616;28;20750;-69
2023/07/16 11:40:09;;;;;;;1999.90;999.90;;;24.80;41.10;;;;;;4995914;28;20409;-70
2023/07/16 11:42:39;;;;;;;1999.90;999.90;;;24.90;42.60;;;;;;4995432;28;20450;-70
2023/07/16 11:45:15;;;;;;;1999.90;999.90;;;25.10;36.50;;;;;;4996153;28;20865;-70
2023/07/16 11:47:41;;;;;;;1999.90;999.90;;;25.00;35.20;;;;;;4996112;28;20480;-70
2023/07/16 11:50:07;;;;;;;1999.90;999.90;;;24.90;35.10;;;;;;4996365;28;20387;-70
2023/07/16 11:52:32;;;;;;;1999.90;999.90;;;25.20;34.60;;;;;;4996249;28;20570;-70
2023/07/16 11:55:03;;;;;;;1999.90;999.90;;;25.30;32.40;;;;;;4997034;28;20462;-69
2023/07/16 11:57:29;;;;;;;1999.90;999.90;;;25.30;29.90;;;;;;4996316;28;20177;-70